Time;durP1;ratioP1;P1;durP2;ratioP2;P2;SDS_P1;SDS_P2;PMS_P1;PMS_P2;Temp;Humidity;BMP_temperature;BMP_pressure;BME280_temperature;BME280_humidity;BME280_pressure;Samples;Min_cycle;Max_cycle;Signal;HPM_P1;HPM_P2
2022/05/19 00:02:25;;;;;;;5.85;1.48;;;19.70;99.90;;;19.11;100.00;97839.53;4978175;28;20406;-69
2022/05/19 00:04:52;;;;;;;4.38;1.38;;;19.70;99.90;;;19.09;100.00;97835.31;4983209;28;20046;-70
2022/05/19 00:07:19;;;;;;;4.00;1.23;;;19.60;99.90;;;18.91;100.00;97834.88;4979315;28;20133;-69
2022/05/19 00:09:46;;;;;;;4.40;1.67;;;19.50;99.90;;;18.77;100.00;97831.44;4981011;28;20069;-69
2022/05/19 00:12:20;;;;;;;5.63;1.95;;;19.40;99.90;;;18.69;100.00;97840.78;4976942;28;20511;-70
2022/05/19 00:14:48;;;;;;;3.78;1.85;;;19.40;99.90;;;18.67;100.00;97834.81;4980088;28;20179;-69
2022/05/19 00:17:15;;;;;;;5.43;1.80;;;19.30;99.90;;;18.46;100.00;97835.38;4977849;28;20053;-70
2022/05/19 00:19:42;;;;;;;3.15;1.40;;;19.10;99.90;;;18.57;100.00;97835.47;4978989;28;20453;-68
2022/05/19 00:22:09;;;;;;;4.38;1.38;;;19.10;99.90;;;18.44;100.00;97832.00;4978748;28;20043;-68
2022/05/19 00:24:36;;;;;;;3.17;1.40;;;19.10;99.90;;;18.44;100.00;97834.66;4982462;28;20057;-68
2022/05/19 00:27:03;;;;;;;3.53;1.60;;;19.10;99.90;;;18.50;100.00;97836.84;4982779;28;20133;-68
2022/05/19 00:29:30;;;;;;;2.60;1.40;;;19.00;99.90;;;18.58;100.00;97829.25;4980340;28;20088;-71
2022/05/19 00:31:57;;;;;;;4.22;1.55;;;19.00;99.90;;;18.56;100.00;97833.75;4980714;28;20070;-68
2022/05/19 00:34:24;;;;;;;2.90;1.80;;;19.00;99.90;;;18.47;100.00;97831.78;4980143;28;20051;-70
2022/05/19 00:37:01;;;;;;;4.80;1.58;;;18.90;99.90;;;18.30;100.00;97830.34;4980892;28;20077;-70
2022/05/19 00:39:28;;;;;;;2.83;1.40;;;18.90;99.90;;;18.20;100.00;97831.97;4992203;28;20050;-69
2022/05/19 00:44:41;;;;;;;2.35;1.45;;;18.70;99.90;;;18.13;100.00;97833.31;4980768;28;20082;-70
2022/05/19 00:47:23;;;;;;;2.40;1.40;;;18.60;99.90;;;18.10;100.00;97831.75;4981853;28;20046;-70
2022/05/19 00:49:51;;;;;;;3.45;1.58;;;18.60;99.90;;;18.09;100.00;97816.94;4968517;28;20054;-70
2022/05/19 00:52:30;;;;;;;6.70;1.65;;;18.50;99.90;;;17.88;100.00;97831.53;4979825;28;20125;-70
2022/05/19 00:55:15;;;;;;;2.95;1.67;;;18.50;99.90;;;17.96;100.00;97822.19;4979702;28;20145;-70
2022/05/19 00:57:52;;;;;;;2.78;1.60;;;18.40;99.90;;;17.77;100.00;97829.63;4982920;28;20108;-70
2022/05/19 01:00:22;;;;;;;4.60;2.00;;;18.30;99.90;;;17.75;100.00;97821.00;4974412;28;20104;-70
2022/05/19 01:02:54;;;;;;;3.40;1.80;;;18.30;99.90;;;17.53;100.00;97817.19;4978615;28;20108;-70
2022/05/19 01:05:38;;;;;;;3.57;1.80;;;18.20;99.90;;;17.71;100.00;97814.28;4984148;28;20120;-70
2022/05/19 01:08:20;;;;;;;3.53;1.77;;;18.20;99.90;;;17.72;100.00;97808.94;4980839;28;20142;-70
2022/05/19 01:10:48;;;;;;;5.50;1.80;;;18.20;99.90;;;17.75;100.00;97816.59;4979295;28;20047;-70
2022/05/19 01:13:15;;;;;;;5.82;1.73;;;18.10;99.90;;;17.40;100.00;97810.25;4976443;28;20058;-70
2022/05/19 01:15:51;;;;;;;3.88;1.80;;;18.10;99.90;;;17.40;100.00;97813.69;4986941;28;20311;-70
2022/05/19 01:18:20;;;;;;;5.28;2.00;;;18.00;99.90;;;17.44;100.00;97817.81;4978640;28;20567;-70
2022/05/19 01:20:47;;;;;;;3.78;1.45;;;18.00;99.90;;;17.55;100.00;97812.69;4979992;28;20058;-70
2022/05/19 01:23:57;;;;;;;5.45;2.30;;;18.00;99.90;;;17.48;100.00;97807.97;4981750;28;20050;-69
2022/05/19 01:26:44;;;;;;;4.00;2.00;;;18.00;99.90;;;17.19;100.00;97812.50;4978690;28;20090;-69
2022/05/19 01:29:14;;;;;;;2.72;1.48;;;18.00;99.90;;;17.47;100.00;97817.63;4983119;28;20062;-70
2022/05/19 01:31:55;;;;;;;3.72;1.92;;;18.10;99.90;;;17.33;100.00;97813.28;4979910;28;20047;-70
2022/05/19 01:34:31;;;;;;;3.22;1.58;;;18.00;99.90;;;17.49;100.00;97813.13;4978832;28;20046;-69
2022/05/19 01:36:58;;;;;;;5.13;1.88;;;18.00;99.90;;;17.58;100.00;97803.75;4979345;28;20141;-69
2022/05/19 01:39:29;;;;;;;4.57;1.65;;;18.00;99.90;;;17.47;100.00;97801.88;4981421;28;20108;-69
2022/05/19 01:42:20;;;;;;;3.60;1.83;;;18.00;99.90;;;17.45;100.00;97801.13;4980633;28;20085;-69
2022/05/19 01:45:05;;;;;;;5.45;2.42;;;18.00;99.90;;;17.22;100.00;97812.28;4978541;28;20058;-71
2022/05/19 01:47:55;;;;;;;3.67;1.80;;;18.00;99.90;;;17.39;100.00;97806.78;4995747;28;20074;-70
2022/05/19 01:51:21;;;;;;;4.18;1.65;;;17.90;99.90;;;17.37;100.00;97807.81;4979735;28;20066;-71
2022/05/19 01:54:20;;;;;;;3.15;1.92;;;18.00;99.90;;;17.09;100.00;97809.66;4980549;28;20511;-70
2022/05/19 01:57:08;;;;;;;2.97;1.42;;;17.90;99.90;;;17.29;100.00;97801.31;4978195;28;20066;-70
2022/05/19 01:59:38;;;;;;;4.05;2.03;;;17.80;99.90;;;17.24;100.00;97808.66;4980267;28;20146;-69
2022/05/19 02:02:17;;;;;;;5.32;1.70;;;17.80;99.90;;;17.40;100.00;97800.56;4981358;28;20144;-69
2022/05/19 02:05:07;;;;;;;3.63;2.05;;;17.80;99.90;;;17.22;100.00;97800.03;4982268;28;20209;-70
2022/05/19 02:07:36;;;;;;;3.13;1.70;;;17.80;99.90;;;17.03;100.00;97805.63;4981793;28;20101;-70
2022/05/19 02:10:16;;;;;;;3.60;1.88;;;17.70;99.90;;;16.99;100.00;97803.31;4984746;28;20100;-70
2022/05/19 02:12:46;;;;;;;6.43;2.25;;;17.60;99.90;;;16.91;100.00;97806.44;4984333;28;20043;-70
2022/05/19 02:15:17;;;;;;;2.63;1.75;;;17.60;99.90;;;16.82;100.00;97814.91;4978508;28;20039;-69
2022/05/19 02:17:46;;;;;;;3.47;1.80;;;17.50;99.90;;;16.90;100.00;97804.75;4981324;28;20153;-70
2022/05/19 02:20:19;;;;;;;6.72;2.15;;;17.40;99.90;;;16.71;100.00;97816.38;4975755;28;20173;-70
2022/05/19 02:22:46;;;;;;;2.45;1.77;;;17.30;99.90;;;16.70;100.00;97812.09;4983610;28;20101;-70
2022/05/19 02:25:27;;;;;;;4.63;1.52;;;17.30;99.90;;;16.57;100.00;97818.19;4982030;28;20133;-70
2022/05/19 02:28:03;;;;;;;2.10;1.17;;;17.30;99.90;;;16.68;100.00;97824.44;4982366;28;20069;-70
2022/05/19 02:30:38;;;;;;;5.30;2.00;;;17.20;99.90;;;16.54;100.00;97816.63;4983549;28;20491;-70
2022/05/19 02:33:06;;;;;;;3.17;1.85;;;17.10;99.90;;;16.51;100.00;97819.41;4980886;28;20157;-70
2022/05/19 02:35:33;;;;;;;5.28;1.63;;;17.10;99.90;;;16.48;100.00;97817.84;4981469;28;20106;-71
2022/05/19 02:38:01;;;;;;;5.55;2.33;;;17.10;99.90;;;16.40;100.00;97819.25;4982022;28;20169;-71
2022/05/19 02:40:34;;;;;;;4.55;1.48;;;17.00;99.90;;;16.40;100.00;97819.25;4984579;28;20505;-70
2022/05/19 02:43:01;;;;;;;;;;;17.00;99.90;;;16.24;100.00;97812.38;4984191;28;20047;-70
2022/05/19 02:45:30;;;;;;;5.47;2.50;;;16.90;99.90;;;16.20;100.00;97813.47;4989034;28;19921;-69
2022/05/19 02:47:58;;;;;;;3.70;2.00;;;16.80;99.90;;;16.09;100.00;97802.81;4982932;28;20054;-70
2022/05/19 02:50:26;;;;;;;3.28;2.05;;;16.70;99.90;;;16.07;100.00;97802.91;4982910;28;20082;-69
2022/05/19 02:52:53;;;;;;;3.50;1.83;;;16.70;99.90;;;15.96;100.00;97807.13;4985469;28;20125;-69
2022/05/19 02:55:20;;;;;;;3.40;2.00;;;16.60;99.90;;;15.99;100.00;97802.56;4986956;28;20121;-69
2022/05/19 02:57:54;;;;;;;5.20;2.30;;;16.50;99.90;;;15.79;100.00;97810.75;4983858;28;20105;-69
2022/05/19 03:00:23;;;;;;;5.00;2.15;;;16.40;99.90;;;15.89;100.00;97801.41;4984619;28;20129;-69
2022/05/19 03:02:54;;;;;;;4.10;2.22;;;16.30;99.90;;;15.80;100.00;97805.41;4986826;28;20097;-70
2022/05/19 03:05:26;;;;;;;4.47;2.33;;;16.30;99.90;;;15.64;100.00;97802.84;4983320;28;20566;-69
2022/05/19 03:07:53;;;;;;;;;;;16.30;99.90;;;15.63;100.00;97801.19;4984335;28;20256;-69
2022/05/19 03:10:22;;;;;;;3.95;2.10;;;16.20;99.90;;;15.53;100.00;97809.66;4978656;28;19921;-69
2022/05/19 03:12:50;;;;;;;3.70;1.85;;;16.20;99.90;;;15.57;100.00;97822.47;4980748;28;20339;-69
2022/05/19 03:15:17;;;;;;;5.88;2.63;;;16.10;99.90;;;15.30;100.00;97824.91;4981801;28;20138;-69
2022/05/19 03:17:44;;;;;;;5.65;2.30;;;16.00;99.90;;;15.38;100.00;97824.47;4988771;28;20589;-70
2022/05/19 03:20:13;;;;;;;6.25;2.70;;;16.00;99.90;;;15.34;100.00;97828.19;4982544;28;20133;-69
2022/05/19 03:22:40;;;;;;;4.53;2.90;;;16.00;99.90;;;15.47;100.00;97816.09;4982867;28;20486;-69
2022/05/19 03:25:08;;;;;;;5.22;2.30;;;16.00;99.90;;;15.47;100.00;97811.69;4984736;28;20145;-69
2022/05/19 03:27:38;;;;;;;3.70;2.30;;;16.00;99.90;;;15.20;100.00;97808.91;4980170;28;20149;-69
2022/05/19 03:30:13;;;;;;;3.53;2.40;;;16.00;99.90;;;15.00;100.00;97824.91;4981156;28;20061;-70
2022/05/19 03:32:41;;;;;;;3.70;2.20;;;15.80;99.90;;;15.03;100.00;97824.75;4982092;28;20055;-69
2022/05/19 03:35:09;;;;;;;3.33;1.73;;;15.70;99.90;;;15.05;100.00;97820.25;4983394;28;20081;-69
2022/05/19 03:37:36;;;;;;;3.80;2.30;;;15.70;99.90;;;15.06;100.00;97821.94;4982522;28;20527;-70
2022/05/19 03:40:04;;;;;;;3.65;2.08;;;15.70;99.90;;;15.21;100.00;97818.47;4982690;28;20046;-70
2022/05/19 03:42:31;;;;;;;4.57;2.38;;;15.70;99.90;;;14.95;100.00;97821.72;4983309;28;20501;-70
2022/05/19 03:44:58;;;;;;;4.63;2.72;;;15.70;99.90;;;14.84;100.00;97823.13;4980488;28;20497;-70
2022/05/19 03:47:25;;;;;;;5.95;2.38;;;15.70;99.90;;;14.79;100.00;97834.78;4981993;28;20078;-70
2022/05/19 03:49:52;;;;;;;3.70;2.20;;;15.50;99.90;;;14.89;100.00;97832.50;4981270;28;20176;-70
2022/05/19 03:52:19;;;;;;;4.18;2.20;;;15.50;99.90;;;14.88;100.00;97831.66;4977359;28;20169;-70
2022/05/19 03:54:46;;;;;;;3.80;2.28;;;15.50;99.90;;;14.93;100.00;97832.25;4983308;28;20042;-70
2022/05/19 03:57:13;;;;;;;3.00;2.25;;;15.50;99.90;;;14.64;100.00;97831.22;4981160;28;20482;-70
2022/05/19 03:59:40;;;;;;;5.63;2.70;;;15.40;99.90;;;14.55;100.00;97839.56;4980801;28;20074;-69
2022/05/19 04:02:07;;;;;;;4.15;2.95;;;15.30;99.90;;;14.48;100.00;97841.66;4978249;28;20156;-69
2022/05/19 04:04:54;;;;;;;5.80;2.75;;;15.30;99.90;;;14.56;100.00;97843.91;4983893;28;20097;-69
2022/05/19 04:07:22;;;;;;;3.55;2.22;;;15.30;99.90;;;14.62;100.00;97846.19;4984867;28;20073;-70
2022/05/19 04:09:48;;;;;;;7.18;2.88;;;15.30;99.90;;;14.61;100.00;97844.47;4985884;28;20129;-69
2022/05/19 04:12:20;;;;;;;4.35;2.65;;;15.30;99.90;;;14.43;100.00;97844.50;4978956;28;20125;-70
2022/05/19 04:14:48;;;;;;;5.60;2.50;;;15.30;99.90;;;14.38;100.00;97843.91;4980315;28;20057;-70
2022/05/19 04:17:16;;;;;;;2.80;2.05;;;15.30;99.90;;;14.49;100.00;97858.19;4985997;28;20047;-69
2022/05/19 04:19:43;;;;;;;4.43;2.55;;;15.30;99.90;;;14.47;100.00;97847.81;4983507;28;20141;-70
2022/05/19 04:22:10;;;;;;;5.63;2.97;;;15.40;99.90;;;14.56;100.00;97854.34;4981771;28;20057;-69
2022/05/19 04:24:37;;;;;;;5.15;2.58;;;15.30;99.90;;;14.66;100.00;97855.50;4981463;28;20109;-69
2022/05/19 04:27:04;;;;;;;4.20;2.72;;;15.30;99.90;;;14.54;100.00;97853.53;4979582;28;20137;-70
2022/05/19 04:29:31;;;;;;;11.77;3.30;;;15.30;99.90;;;14.64;100.00;97865.19;4983195;28;20077;-69
2022/05/19 04:31:58;;;;;;;5.80;2.90;;;15.30;99.90;;;14.74;100.00;97863.78;4980087;28;20077;-69
2022/05/19 04:34:25;;;;;;;4.13;2.47;;;15.40;99.90;;;14.91;100.00;97862.00;4980992;28;20712;-69
2022/05/19 04:36:52;;;;;;;3.70;2.40;;;15.60;99.90;;;14.83;100.00;97860.66;4984071;28;20069;-69
2022/05/19 04:39:19;;;;;;;4.57;2.75;;;15.70;99.90;;;14.93;100.00;97854.94;4978632;28;20061;-70
2022/05/19 04:41:46;;;;;;;3.80;2.10;;;15.80;99.90;;;14.87;100.00;97856.13;4980211;28;20128;-69
2022/05/19 04:44:13;;;;;;;5.03;2.25;;;15.90;99.90;;;14.98;100.00;97853.72;4981553;28;20078;-69
2022/05/19 04:46:40;;;;;;;4.50;2.08;;;15.90;99.90;;;15.20;100.00;97855.16;4982226;28;20130;-69
2022/05/19 04:49:07;;;;;;;3.67;2.10;;;15.90;99.90;;;15.51;100.00;97853.38;4980097;28;20105;-70
2022/05/19 04:51:34;;;;;;;7.57;2.38;;;16.00;99.90;;;15.00;100.00;97864.94;4980309;28;20133;-70
2022/05/19 04:54:01;;;;;;;4.50;2.40;;;16.20;99.90;;;14.78;100.00;97883.59;4982266;28;20477;-70
2022/05/19 04:56:30;;;;;;;3.05;2.20;;;16.10;99.90;;;15.21;100.00;97870.75;4984273;28;20078;-69
2022/05/19 04:58:57;;;;;;;5.10;3.05;;;16.20;99.90;;;15.57;100.00;97864.31;4979910;28;20386;-70
2022/05/19 05:01:24;;;;;;;4.75;2.33;;;16.30;99.90;;;15.73;100.00;97866.91;4979070;28;20180;-70
2022/05/19 05:03:55;;;;;;;3.08;2.00;;;16.50;99.90;;;16.15;100.00;97869.69;4983489;28;20731;-70
2022/05/19 05:06:22;;;;;;;8.00;2.75;;;16.70;99.90;;;16.28;100.00;97866.25;4980315;28;20142;-69
2022/05/19 05:08:49;;;;;;;3.03;1.88;;;16.90;99.90;;;16.42;100.00;97862.78;4984261;28;20180;-70
2022/05/19 05:11:16;;;;;;;4.38;2.17;;;17.10;99.90;;;16.86;100.00;97866.19;4978996;28;20092;-70
2022/05/19 05:13:43;;;;;;;4.55;2.30;;;17.20;99.90;;;16.85;100.00;97860.09;4984908;28;20129;-70
2022/05/19 05:16:10;;;;;;;5.22;2.42;;;17.40;99.90;;;17.01;100.00;97867.81;4978517;28;20131;-70
2022/05/19 05:18:37;;;;;;;5.05;1.90;;;17.60;99.90;;;17.21;100.00;97871.78;4980481;28;20046;-69
2022/05/19 05:21:06;;;;;;;2.80;2.22;;;17.70;99.90;;;17.18;100.00;97868.53;4983901;28;20490;-70
2022/05/19 05:23:33;;;;;;;3.53;2.55;;;17.90;99.90;;;17.17;100.00;97865.06;4981749;28;20148;-69
2022/05/19 05:26:01;;;;;;;4.93;1.80;;;18.10;99.90;;;17.54;100.00;97860.03;4979862;28;20047;-70
2022/05/19 05:28:28;;;;;;;4.75;2.40;;;18.20;99.90;;;17.54;100.00;97862.66;4983149;28;20978;-69
2022/05/19 05:30:55;;;;;;;3.60;2.00;;;18.30;99.90;;;17.75;100.00;97866.47;4976675;28;20434;-69
2022/05/19 05:33:22;;;;;;;3.88;2.53;;;18.30;99.90;;;17.39;100.00;97875.00;4978160;28;20540;-69
2022/05/19 05:35:49;;;;;;;4.88;2.67;;;18.50;99.90;;;17.73;100.00;97872.78;4983156;28;20101;-70
2022/05/19 05:38:17;;;;;;;3.92;2.47;;;18.50;99.90;;;17.82;100.00;97859.06;4983287;28;20482;-70
2022/05/19 05:40:45;;;;;;;4.22;2.50;;;18.60;99.90;;;18.09;100.00;97866.00;4977546;28;20054;-70
2022/05/19 05:43:18;;;;;;;6.47;3.15;;;18.90;99.90;;;18.33;100.00;97864.28;4982148;28;20104;-70
2022/05/19 05:45:47;;;;;;;5.97;2.78;;;19.10;99.90;;;18.59;100.00;97849.34;4978986;28;20065;-69
2022/05/19 05:48:15;;;;;;;5.80;2.80;;;19.20;99.90;;;18.82;100.00;97854.78;4979018;28;20053;-69
2022/05/19 05:50:42;;;;;;;6.45;3.17;;;19.40;99.90;;;19.02;100.00;97858.59;4982246;28;20078;-69
2022/05/19 05:53:10;;;;;;;4.00;2.60;;;19.50;99.90;;;19.08;100.00;97855.53;4980381;28;20046;-70
2022/05/19 05:55:39;;;;;;;5.72;2.03;;;19.60;99.90;;;19.12;100.00;97856.97;4980742;28;20074;-70
2022/05/19 05:58:10;;;;;;;4.55;2.28;;;19.80;99.90;;;19.15;100.00;97856.75;4981794;28;20042;-69
2022/05/19 06:00:41;;;;;;;5.28;2.30;;;20.00;99.90;;;19.26;100.00;97861.22;4980679;28;20086;-70
2022/05/19 06:03:08;;;;;;;3.33;1.70;;;20.10;99.90;;;19.46;100.00;97872.09;4981233;28;20141;-69
2022/05/19 06:05:35;;;;;;;2.85;1.85;;;;;;;19.48;100.00;97867.53;4985117;28;20153;-70
2022/05/19 06:08:02;;;;;;;3.38;1.75;;;20.50;99.90;;;19.88;100.00;97864.59;4981077;28;20057;-70
2022/05/19 06:10:29;;;;;;;3.45;1.73;;;20.70;99.90;;;19.99;100.00;97860.16;4978343;28;20134;-70
2022/05/19 06:12:57;;;;;;;2.30;1.48;;;20.80;99.90;;;20.29;100.00;97866.66;4971319;28;20141;-69
2022/05/19 06:15:25;;;;;;;4.18;1.80;;;21.00;99.90;;;20.36;100.00;97864.41;4980189;28;20559;-70
2022/05/19 06:17:53;;;;;;;3.53;1.60;;;;;;;20.52;100.00;97866.66;4981119;28;20054;-70
2022/05/19 06:20:20;;;;;;;4.45;1.80;;;21.30;99.90;;;20.75;100.00;97873.63;4984273;28;20125;-70
2022/05/19 06:22:48;;;;;;;3.47;1.70;;;21.40;99.90;;;20.56;100.00;97862.84;4980027;28;20069;-70
2022/05/19 06:25:20;;;;;;;2.63;1.80;;;21.50;99.90;;;20.45;100.00;97868.94;4985969;28;20468;-70
2022/05/19 06:27:51;;;;;;;3.85;1.70;;;21.50;99.90;;;20.82;100.00;97873.97;4987383;28;20129;-70
2022/05/19 06:30:20;;;;;;;2.60;1.67;;;21.60;99.90;;;21.09;100.00;97873.56;4983223;28;20042;-71
2022/05/19 06:32:48;;;;;;;2.92;1.67;;;21.70;99.90;;;21.15;100.00;97866.97;4985233;28;20054;-70
2022/05/19 06:35:21;;;;;;;5.13;1.90;;;21.90;99.90;;;21.01;100.00;97871.56;4984238;28;20193;-71
2022/05/19 06:37:48;;;;;;;3.80;1.73;;;21.90;99.90;;;21.13;100.00;97866.25;4980341;28;20072;-71
2022/05/19 06:40:17;;;;;;;4.10;1.30;;;22.10;99.90;;;21.35;100.00;97860.91;4981711;28;20150;-71
2022/05/19 06:42:45;;;;;;;3.78;1.20;;;22.20;99.90;;;21.72;100.00;97865.81;4981928;28;20439;-70
2022/05/19 06:45:19;;;;;;;2.60;1.30;;;22.40;99.90;;;21.86;100.00;97856.72;4980020;28;20663;-71
2022/05/19 06:47:47;;;;;;;2.80;1.27;;;22.60;99.90;;;22.13;100.00;97856.19;4983278;28;20063;-71
2022/05/19 06:50:15;;;;;;;3.53;1.30;;;22.90;99.90;;;22.26;100.00;97856.84;4984024;28;20081;-70
2022/05/19 06:52:55;;;;;;;4.43;1.83;;;23.20;99.90;;;21.81;100.00;97859.75;4982996;28;20531;-70
2022/05/19 06:55:23;;;;;;;2.58;1.38;;;23.20;99.90;;;21.55;100.00;97867.19;4983881;28;20493;-71
2022/05/19 06:57:50;;;;;;;3.58;1.52;;;23.20;99.90;;;21.60;100.00;97865.03;4991499;28;20404;-69
2022/05/19 07:00:21;;;;;;;3.65;1.50;;;23.10;99.90;;;22.06;100.00;97862.97;4983701;28;20131;-69
2022/05/19 07:02:53;;;;;;;6.70;1.27;;;23.10;99.90;;;22.54;100.00;97868.50;4980606;28;20092;-70
2022/05/19 07:05:25;;;;;;;4.38;1.52;;;23.40;99.90;;;22.31;100.00;97874.94;4985200;28;20054;-69
2022/05/19 07:07:52;;;;;;;4.78;1.50;;;23.50;99.90;;;22.09;100.00;97873.25;4987564;28;21785;-69
2022/05/19 07:10:22;;;;;;;3.88;1.30;;;23.50;99.90;;;22.50;100.00;97869.72;4982008;28;20601;-70
2022/05/19 07:12:49;;;;;;;6.47;2.38;;;23.60;99.90;;;22.97;100.00;97867.38;4983310;28;20042;-70
2022/05/19 07:15:19;;;;;;;2.50;1.55;;;23.80;99.90;;;22.57;100.00;97880.63;4983092;28;20134;-69
2022/05/19 07:17:47;;;;;;;5.82;1.95;;;23.90;99.90;;;22.94;100.00;97874.75;4983025;28;20504;-69
2022/05/19 07:23:00;;;;;;;3.22;1.50;;;24.00;99.90;;;23.06;100.00;97878.13;4980425;28;20086;-70
2022/05/19 07:25:27;;;;;;;2.42;1.30;;;24.10;99.90;;;22.77;100.00;97886.84;4983093;28;20077;-70
2022/05/19 07:27:55;;;;;;;4.15;1.70;;;24.00;99.90;;;22.53;100.00;97889.78;4983817;28;20121;-69
2022/05/19 07:30:22;;;;;;;3.10;1.63;;;23.90;99.90;;;22.73;100.00;97880.13;4980640;28;20146;-70
2022/05/19 07:32:49;;;;;;;6.22;1.70;;;23.80;99.90;;;22.40;100.00;97892.69;4985561;28;20518;-70
2022/05/19 07:35:17;;;;;;;6.32;1.77;;;23.80;99.90;;;22.44;100.00;97883.50;4983926;28;20050;-70
2022/05/19 07:37:45;;;;;;;2.08;1.10;;;23.70;99.90;;;22.99;100.00;97891.13;4980890;28;20483;-69
2022/05/19 07:40:13;;;;;;;4.63;1.40;;;23.80;99.90;;;22.98;100.00;97886.75;4984041;28;20081;-70
2022/05/19 07:42:40;;;;;;;2.60;1.38;;;23.90;99.90;;;23.29;100.00;97878.75;4987310;28;20056;-70
2022/05/19 07:45:09;;;;;;;2.72;1.58;;;24.00;99.90;;;22.75;100.00;97878.19;4981669;28;20101;-70
2022/05/19 07:47:36;;;;;;;2.90;1.40;;;24.00;99.90;;;22.98;100.00;97886.75;4984749;28;20138;-70
2022/05/19 07:50:05;;;;;;;3.95;1.30;;;24.00;99.90;;;22.90;100.00;97882.13;4983251;28;20118;-69
2022/05/19 07:52:34;;;;;;;4.22;1.50;;;23.90;99.90;;;22.75;100.00;97876.38;4984252;28;20093;-69
2022/05/19 07:55:01;;;;;;;3.85;1.45;;;23.70;99.90;;;22.55;100.00;97869.34;4985491;28;20046;-70
2022/05/19 07:57:29;;;;;;;4.53;1.73;;;23.60;99.90;;;23.00;100.00;97868.13;4979545;28;20047;-70
2022/05/19 07:59:55;;;;;;;5.40;1.70;;;23.70;99.90;;;22.96;100.00;97868.34;4977013;28;20485;-70
2022/05/19 08:02:22;;;;;;;3.90;1.70;;;23.90;99.90;;;22.86;100.00;97864.84;4982716;28;20057;-70
2022/05/19 08:04:49;;;;;;;4.18;1.35;;;24.00;99.90;;;23.10;100.00;97868.94;4986817;28;20089;-70
2022/05/19 08:07:16;;;;;;;5.75;1.60;;;24.10;99.90;;;23.18;100.00;97864.66;4980690;28;20061;-70
2022/05/19 08:15:35;;;;;;;6.22;1.80;;;24.30;99.90;;;23.62;100.00;97868.72;4983882;28;20051;-70
2022/05/19 08:18:18;;;;;;;7.07;1.65;;;24.50;99.90;;;23.90;100.00;97859.06;4981136;28;20049;-70
2022/05/19 08:20:57;;;;;;;5.80;2.20;;;24.60;99.90;;;23.68;100.00;97863.69;4982020;28;20061;-70
2022/05/19 08:23:29;;;;;;;5.45;2.20;;;24.80;99.90;;;23.56;100.00;97872.75;4982724;28;20145;-69
2022/05/19 08:25:57;;;;;;;3.63;1.80;;;24.90;99.90;;;23.33;100.00;97881.00;4980744;28;20059;-70
2022/05/19 08:28:31;;;;;;;6.63;2.42;;;24.90;99.90;;;23.50;100.00;97873.31;4983758;28;20130;-70
2022/05/19 08:31:03;;;;;;;4.05;1.85;;;24.90;99.90;;;23.46;100.00;97858.69;4981425;28;20055;-70
2022/05/19 08:33:32;;;;;;;5.95;1.98;;;25.00;99.90;;;23.77;100.00;97854.94;4984575;28;20051;-70
2022/05/19 08:35:59;;;;;;;8.38;1.73;;;24.90;99.90;;;23.77;100.00;97870.81;4981633;28;20138;-70
2022/05/19 08:38:26;;;;;;;3.95;2.22;;;25.10;99.90;;;23.70;100.00;97867.03;4981122;28;20054;-70
2022/05/19 08:41:08;;;;;;;5.82;1.98;;;25.20;99.90;;;24.07;100.00;97866.31;4980199;28;20042;-70
2022/05/19 08:43:57;;;;;;;6.18;2.58;;;25.40;99.90;;;23.99;100.00;97859.09;4983328;28;20058;-69
2022/05/19 08:46:45;;;;;;;10.85;2.13;;;25.60;99.90;;;24.34;100.00;97860.22;4975931;28;20116;-69
2022/05/19 08:49:28;;;;;;;3.42;1.75;;;25.60;99.90;;;24.36;100.00;97855.63;4980804;28;20053;-70
2022/05/19 08:52:06;;;;;;;6.03;2.20;;;25.70;99.90;;;24.32;100.00;97875.44;4982029;28;20587;-70
2022/05/19 08:54:36;;;;;;;9.27;2.53;;;25.80;99.90;;;24.57;100.00;97868.69;4979388;28;20165;-70
2022/05/19 08:57:14;;;;;;;4.10;1.92;;;25.90;99.90;;;24.72;100.00;97860.22;4984937;28;20133;-69
2022/05/19 09:00:25;;;;;;;10.73;2.00;;;26.00;99.90;;;24.84;100.00;97859.88;4979311;28;20050;-70
2022/05/19 09:03:25;;;;;;;7.03;2.20;;;26.30;99.90;;;25.30;100.00;97841.31;4954690;28;20077;-69
2022/05/19 09:10:36;;;;;;;5.05;1.92;;;26.60;99.90;;;25.69;100.00;97858.75;4941150;28;20588;-70
2022/05/19 09:13:17;;;;;;;;;;;26.60;99.90;;;26.01;100.00;97863.50;4979636;28;20038;-69
2022/05/19 09:15:48;;;;;;;8.00;2.17;;;;;;;25.27;100.00;97854.03;4981468;28;20028;-69
2022/05/19 09:18:20;;;;;;;6.23;1.60;;;27.30;99.90;;;25.96;100.00;97844.53;4978213;28;20157;-70
2022/05/19 09:20:56;;;;;;;4.53;1.77;;;27.40;99.90;;;26.07;100.00;97853.06;4978556;28;20137;-70
2022/05/19 09:23:24;;;;;;;6.75;1.73;;;27.50;99.90;;;26.36;100.00;97846.56;4981041;28;20139;-69
2022/05/19 09:26:26;;;;;;;5.88;1.83;;;27.60;99.90;;;26.79;100.00;97858.09;4978989;28;20492;-70
2022/05/19 09:29:07;;;;;;;4.88;1.85;;;27.80;99.90;;;27.01;100.00;97846.03;4980757;28;20038;-70
2022/05/19 09:31:42;;;;;;;4.65;1.52;;;28.00;99.90;;;26.58;100.00;97861.19;4977024;28;20093;-70
2022/05/19 09:34:10;;;;;;;7.10;1.60;;;28.10;99.90;;;26.25;100.00;97857.47;4979100;28;20564;-69
2022/05/19 09:36:41;;;;;;;7.00;1.80;;;28.30;99.90;;;26.62;100.00;97854.56;4979130;28;20050;-70
2022/05/19 09:39:17;;;;;;;6.95;1.98;;;28.40;99.90;;;26.92;100.00;97842.50;4981246;28;21021;-69
2022/05/19 09:41:55;;;;;;;3.95;1.40;;;28.60;99.90;;;26.97;100.00;97842.00;4980661;28;20097;-69
2022/05/19 09:44:32;;;;;;;7.47;1.77;;;28.60;99.90;;;28.25;100.00;97831.72;4986137;28;20066;-70
2022/05/19 09:47:18;;;;;;;5.15;1.70;;;28.70;99.90;;;27.52;100.00;97845.97;4977946;28;20134;-69
2022/05/19 09:49:54;;;;;;;10.07;1.67;;;29.20;99.90;;;27.81;100.00;97834.78;4987115;28;20120;-69
2022/05/19 09:52:26;;;;;;;7.25;1.70;;;29.10;99.90;;;28.74;100.00;97831.59;4988058;28;20074;-70
2022/05/19 09:54:59;;;;;;;5.38;1.70;;;29.20;99.40;;;27.90;100.00;97831.13;4982369;28;20046;-69
2022/05/19 09:57:56;;;;;;;6.47;1.80;;;29.40;98.30;;;28.12;100.00;97831.41;4990182;28;20054;-70
2022/05/19 10:00:53;;;;;;;4.68;1.60;;;29.50;99.00;;;29.81;100.00;97829.06;4983402;28;20108;-69
2022/05/19 10:03:36;;;;;;;6.80;2.30;;;29.80;97.60;;;28.31;100.00;97827.56;4988044;28;20378;-69
2022/05/19 10:06:08;;;;;;;3.75;2.08;;;30.20;95.90;;;28.83;100.00;97808.34;4982112;28;20390;-70
2022/05/19 10:08:39;;;;;;;6.55;1.80;;;30.30;95.00;;;30.08;100.00;97808.03;4987286;28;20752;-70
2022/05/19 10:11:12;;;;;;;5.47;1.33;;;30.40;95.90;;;29.11;100.00;97816.72;4981257;28;20054;-69
2022/05/19 10:13:51;;;;;;;6.70;1.58;;;30.50;94.50;;;28.36;100.00;97814.50;4978363;28;20075;-69
2022/05/19 10:16:45;;;;;;;4.13;1.50;;;30.60;93.50;;;27.38;100.00;97811.97;4981551;28;20050;-69
2022/05/19 10:19:37;;;;;;;9.20;2.30;;;30.30;93.10;;;27.32;100.00;97808.97;4985630;28;20050;-69
2022/05/19 10:22:20;;;;;;;4.55;1.58;;;29.50;93.90;;;26.98;100.00;97818.88;4981050;28;20134;-69
2022/05/19 10:25:11;;;;;;;8.38;2.20;;;29.00;93.90;;;26.97;100.00;97830.53;4982372;28;20066;-69
2022/05/19 10:31:04;;;;;;;5.88;2.10;;;28.90;95.70;;;27.16;100.00;97837.38;4984214;28;20050;-69
2022/05/19 10:34:00;;;;;;;5.68;2.17;;;28.90;94.70;;;26.91;100.00;97834.66;4986209;28;20064;-68
2022/05/19 10:37:10;;;;;;;5.30;1.58;;;28.70;95.20;;;27.09;100.00;97842.53;4981009;28;20205;-68
2022/05/19 10:40:13;;;;;;;6.82;1.60;;;28.70;94.80;;;27.09;100.00;97847.88;4985791;28;20137;-69
2022/05/19 10:42:59;;;;;;;4.90;1.67;;;29.00;94.60;;;26.82;100.00;97855.16;4985864;28;20066;-69
2022/05/19 10:45:33;;;;;;;6.05;1.60;;;28.90;94.50;;;27.10;100.00;97830.91;4986930;28;20057;-69
2022/05/19 10:48:40;;;;;;;4.97;1.65;;;29.00;95.00;;;28.16;100.00;97822.91;4980445;28;20221;-70
2022/05/19 10:51:18;;;;;;;5.38;1.63;;;29.10;95.70;;;28.22;100.00;97833.94;4984249;28;20698;-69
2022/05/19 10:54:27;;;;;;;4.60;1.75;;;29.40;95.50;;;27.68;100.00;97827.28;4984317;28;20125;-69
2022/05/19 10:57:19;;;;;;;5.90;1.40;;;29.60;94.20;;;28.94;100.00;97839.16;4983112;28;20080;-69